Terminal Aerodrome Forecast
Issued by NWS

Home | Current Version | Previous Version | Graphics & Text | Print | Product List | Glossary On
Versions: 1 2 3 4 5 6 7 8 9 10 11 12 13
571
FTUS43 KICT 070526
TAFRSL
TAF
KRSL 070526Z 0706/0806 26012KT P6SM SCT250
     FM070800 30010KT P6SM SCT250
     FM071600 31016G23KT P6SM SCT100
     FM071800 32027G34KT P6SM SCT200
     FM080000 31019G26KT P6SM SKC=

USA.gov is the U.S. government's official web portal to all federal, state and local government web resources and services.